createdAt,value
2022-10-05T00:00:48.353Z,15.12
2022-10-05T00:03:14.849Z,15.12
2022-10-05T00:05:41.459Z,15.11
2022-10-05T00:08:10.558Z,15.08
2022-10-05T00:10:39.287Z,15.11
2022-10-05T00:13:11.889Z,15.10
2022-10-05T00:15:38.341Z,15.13
2022-10-05T00:18:13.305Z,15.15
2022-10-05T00:20:41.430Z,15.13
2022-10-05T00:23:13.665Z,15.14
2022-10-05T00:25:40.030Z,15.12
2022-10-05T00:28:16.785Z,15.10
2022-10-05T00:30:43.293Z,15.11
2022-10-05T00:33:09.655Z,15.06
2022-10-05T00:35:36.265Z,14.95
2022-10-05T00:38:02.622Z,14.91
2022-10-05T00:40:46.089Z,14.89
2022-10-05T00:43:26.960Z,14.83
2022-10-05T00:46:23.859Z,14.79
2022-10-05T00:49:27.817Z,14.80
2022-10-05T00:52:06.789Z,14.83
2022-10-05T00:54:49.298Z,14.92
2022-10-05T00:57:27.754Z,14.90
2022-10-05T01:00:14.430Z,14.91
2022-10-05T01:02:45.991Z,14.86
2022-10-05T01:05:29.445Z,14.86
2022-10-05T01:08:28.421Z,14.85
2022-10-05T01:11:09.363Z,14.87
2022-10-05T01:13:42.749Z,14.88
2022-10-05T01:16:26.782Z,14.86
2022-10-05T01:19:22.510Z,14.85
2022-10-05T01:22:09.725Z,14.83
2022-10-05T01:25:04.523Z,14.84
2022-10-05T01:27:53.006Z,14.83
2022-10-05T01:30:21.824Z,14.83
2022-10-05T01:33:03.470Z,14.80
2022-10-05T01:36:00.434Z,14.77
2022-10-05T01:38:34.492Z,14.72
2022-10-05T01:41:12.460Z,14.74
2022-10-05T01:43:55.876Z,14.76
2022-10-05T01:46:34.047Z,14.76
2022-10-05T01:49:21.900Z,14.82
2022-10-05T01:51:55.342Z,14.88
2022-10-05T01:54:21.636Z,14.94
2022-10-05T01:57:26.245Z,14.91
2022-10-05T02:00:04.792Z,14.87
2022-10-05T02:02:34.686Z,14.88
2022-10-05T02:05:10.216Z,14.91
2022-10-05T02:07:50.683Z,14.89
2022-10-05T02:10:25.955Z,14.86
2022-10-05T02:13:02.490Z,14.86
2022-10-05T02:15:51.460Z,14.87
2022-10-05T02:18:21.878Z,14.91
2022-10-05T02:20:52.233Z,14.92
2022-10-05T02:23:23.962Z,14.95
2022-10-05T02:25:52.878Z,14.97
2022-10-05T02:28:43.932Z,14.98
2022-10-05T02:31:14.356Z,14.94
2022-10-05T02:33:41.064Z,14.97
2022-10-05T02:36:25.957Z,14.99
2022-10-05T02:39:08.492Z,15.02
2022-10-05T02:41:50.151Z,15.01
2022-10-05T02:44:45.062Z,14.98
2022-10-05T02:47:20.969Z,14.99
2022-10-05T02:49:50.277Z,14.97
2022-10-05T02:52:36.601Z,14.98
2022-10-05T02:55:18.122Z,15.00
2022-10-05T02:57:57.262Z,14.99
2022-10-05T03:00:25.894Z,14.96
2022-10-05T03:03:00.797Z,14.96
2022-10-05T03:05:53.032Z,14.98
2022-10-05T03:08:28.877Z,14.99
2022-10-05T03:11:03.535Z,15.00
2022-10-05T03:13:52.857Z,15.03
2022-10-05T03:17:00.788Z,15.03
2022-10-05T03:19:33.028Z,15.03
2022-10-05T03:22:30.520Z,15.00
2022-10-05T03:25:14.320Z,15.01
2022-10-05T03:27:48.635Z,14.99
2022-10-05T03:30:26.473Z,14.98
2022-10-05T03:33:14.606Z,14.97
2022-10-05T03:35:59.134Z,14.94
2022-10-05T03:38:39.723Z,14.93
2022-10-05T03:41:06.036Z,14.89
2022-10-05T03:44:02.270Z,14.87
2022-10-05T03:46:58.697Z,14.85
2022-10-05T03:49:33.935Z,14.85
2022-10-05T03:52:17.473Z,14.79
2022-10-05T03:55:05.481Z,14.85
2022-10-05T03:57:38.151Z,14.82
2022-10-05T04:00:16.395Z,14.81
2022-10-05T04:03:05.294Z,14.79
2022-10-05T04:05:53.718Z,14.79
2022-10-05T04:08:38.660Z,14.84
2022-10-05T04:11:12.728Z,14.82
2022-10-05T04:13:45.775Z,14.77
2022-10-05T04:16:17.106Z,14.76
2022-10-05T04:19:15.521Z,14.78
2022-10-05T04:21:52.516Z,14.81
2022-10-05T04:24:24.317Z,14.81
2022-10-05T04:26:54.573Z,14.79
2022-10-05T04:29:40.821Z,14.74
2022-10-05T04:32:28.399Z,14.72
2022-10-05T04:35:09.930Z,14.72
2022-10-05T04:38:10.435Z,14.69
2022-10-05T04:41:02.219Z,14.69
2022-10-05T04:43:59.129Z,14.68
2022-10-05T04:47:03.278Z,14.68
2022-10-05T04:50:05.007Z,14.67
2022-10-05T04:52:50.335Z,14.65
2022-10-05T04:55:48.038Z,14.65
2022-10-05T04:58:37.810Z,14.63
2022-10-05T05:01:29.614Z,14.63
2022-10-05T05:04:14.825Z,14.61
2022-10-05T05:06:57.270Z,14.65
2022-10-05T05:09:49.020Z,14.63
2022-10-05T05:12:27.571Z,14.64
2022-10-05T05:15:15.286Z,14.67
2022-10-05T05:18:14.070Z,14.67
2022-10-05T05:20:56.918Z,14.69
2022-10-05T05:23:44.429Z,14.69
2022-10-05T05:26:28.669Z,14.68
2022-10-05T05:29:08.770Z,14.67
2022-10-05T05:31:49.014Z,14.63
2022-10-05T05:34:34.342Z,14.61
2022-10-05T05:37:28.149Z,14.61
2022-10-05T05:40:12.925Z,14.59
2022-10-05T05:42:47.011Z,14.58
2022-10-05T05:45:27.453Z,14.60
2022-10-05T05:47:54.813Z,14.59
2022-10-05T05:50:33.998Z,14.61
2022-10-05T05:53:14.621Z,14.60
2022-10-05T05:55:48.524Z,14.64
2022-10-05T05:58:32.175Z,14.62
2022-10-05T06:01:04.192Z,14.56
2022-10-05T06:03:59.519Z,14.58
2022-10-05T06:06:31.006Z,14.56
2022-10-05T06:09:01.358Z,14.53
2022-10-05T06:11:53.074Z,14.57
2022-10-05T06:14:34.573Z,14.59
2022-10-05T06:17:10.250Z,14.59
2022-10-05T06:19:39.062Z,14.59
2022-10-05T06:22:29.064Z,14.57
2022-10-05T06:25:06.713Z,14.64
2022-10-05T06:27:37.701Z,14.62
2022-10-05T06:30:14.965Z,14.63
2022-10-05T06:33:02.975Z,14.62
2022-10-05T06:35:53.626Z,14.66
2022-10-05T06:38:46.940Z,14.67
2022-10-05T06:41:46.996Z,14.69
2022-10-05T06:44:45.631Z,14.66
2022-10-05T06:47:44.795Z,14.64
2022-10-05T06:50:34.547Z,14.67
2022-10-05T06:53:22.534Z,14.66
2022-10-05T06:56:26.692Z,14.71
2022-10-05T06:59:18.414Z,14.72
2022-10-05T07:02:04.260Z,14.76
2022-10-05T07:05:12.582Z,14.79
2022-10-05T07:07:56.315Z,14.88
2022-10-05T07:10:36.450Z,14.95
2022-10-05T07:13:24.512Z,15.03
2022-10-05T07:15:56.930Z,15.08
2022-10-05T07:18:29.437Z,15.16
2022-10-05T07:21:04.772Z,15.21
2022-10-05T07:23:59.285Z,15.28
2022-10-05T07:26:54.540Z,15.30
2022-10-05T07:29:55.042Z,15.33
2022-10-05T07:32:51.279Z,15.34
2022-10-05T07:36:20.566Z,15.39
2022-10-05T07:39:18.482Z,15.48
2022-10-05T07:41:51.314Z,15.42
2022-10-05T07:44:43.876Z,15.47
2022-10-05T07:47:19.352Z,15.42
2022-10-05T07:49:52.069Z,15.43
2022-10-05T07:52:34.923Z,15.35
2022-10-05T07:55:21.546Z,15.44
2022-10-05T07:57:53.883Z,15.55
2022-10-05T08:00:27.924Z,15.76
2022-10-05T08:02:59.798Z,15.96
2022-10-05T08:05:30.113Z,16.14
2022-10-05T08:08:25.653Z,15.99
2022-10-05T08:11:10.618Z,16.13
2022-10-05T08:14:02.574Z,16.00
2022-10-05T08:16:36.857Z,15.89
2022-10-05T08:19:14.282Z,15.76
2022-10-05T08:21:47.844Z,16.11
2022-10-05T08:24:38.941Z,16.01
2022-10-05T08:27:14.826Z,15.88
2022-10-05T08:29:50.053Z,16.13
2022-10-05T08:32:25.193Z,16.16
2022-10-05T08:35:13.507Z,16.14
2022-10-05T08:37:42.900Z,16.47
2022-10-05T08:40:36.448Z,16.75
2022-10-05T08:43:12.901Z,16.74
2022-10-05T08:46:07.028Z,16.83
2022-10-05T08:49:01.322Z,17.09
2022-10-05T08:51:55.158Z,17.75
2022-10-05T08:54:53.603Z,17.50
2022-10-05T08:57:48.056Z,17.17
2022-10-05T09:00:19.400Z,16.95
2022-10-05T09:03:21.717Z,16.68
2022-10-05T09:05:48.033Z,16.64
2022-10-05T09:08:35.923Z,16.82
2022-10-05T09:11:12.007Z,16.82
2022-10-05T09:13:53.809Z,16.78
2022-10-05T09:16:38.247Z,16.55
2022-10-05T09:19:43.319Z,16.44
2022-10-05T09:22:31.414Z,16.39
2022-10-05T09:25:10.973Z,16.37
2022-10-05T09:27:39.257Z,16.37
2022-10-05T09:30:22.177Z,16.34
2022-10-05T09:33:25.926Z,16.29
2022-10-05T09:36:19.841Z,16.34
2022-10-05T09:39:16.783Z,16.34
2022-10-05T09:42:20.685Z,16.31
2022-10-05T09:45:25.272Z,16.27
2022-10-05T09:48:06.919Z,16.30
2022-10-05T09:50:51.536Z,16.38
2022-10-05T09:53:29.940Z,16.27
2022-10-05T09:56:22.013Z,16.32
2022-10-05T09:59:08.205Z,16.39
2022-10-05T10:02:05.664Z,16.45
2022-10-05T10:04:41.268Z,16.42
2022-10-05T10:07:27.205Z,16.34
2022-10-05T10:10:29.176Z,16.34
2022-10-05T10:13:14.196Z,16.25
2022-10-05T10:16:12.722Z,16.13
2022-10-05T10:19:00.889Z,16.05
2022-10-05T10:21:56.485Z,15.96
2022-10-05T10:24:48.601Z,15.92
2022-10-05T10:27:32.038Z,15.92
2022-10-05T10:30:51.681Z,15.85
2022-10-05T10:33:37.228Z,15.86
2022-10-05T10:36:15.486Z,15.88
2022-10-05T10:39:02.103Z,15.84
2022-10-05T10:41:40.246Z,15.86
2022-10-05T10:44:25.337Z,15.88
2022-10-05T10:47:35.257Z,15.80
2022-10-05T10:50:28.274Z,15.73
2022-10-05T10:53:29.641Z,15.71
2022-10-05T10:56:17.449Z,15.72
2022-10-05T10:59:26.556Z,15.72
2022-10-05T11:02:23.686Z,15.65
2022-10-05T11:05:08.945Z,15.61
2022-10-05T11:07:49.614Z,15.62
2022-10-05T11:10:34.570Z,15.66
2022-10-05T11:13:34.470Z,15.75
2022-10-05T11:16:20.064Z,15.80
2022-10-05T11:19:02.967Z,15.76
2022-10-05T11:21:44.394Z,15.71
2022-10-05T11:24:43.679Z,15.78
2022-10-05T11:27:28.568Z,15.83
2022-10-05T11:30:13.829Z,15.84
2022-10-05T11:32:52.733Z,15.83
2022-10-05T11:35:41.625Z,15.88
2022-10-05T11:38:10.800Z,15.87
2022-10-05T11:40:52.460Z,15.81
2022-10-05T11:44:04.480Z,15.78
2022-10-05T11:46:41.582Z,15.86
2022-10-05T11:49:32.958Z,15.88
2022-10-05T11:52:10.674Z,16.07
2022-10-05T11:55:09.957Z,16.13
2022-10-05T11:57:59.039Z,16.23
2022-10-05T12:00:32.365Z,16.40
2022-10-05T12:03:24.567Z,16.25
2022-10-05T12:06:03.167Z,16.11
2022-10-05T12:09:03.542Z,16.15
2022-10-05T12:12:14.005Z,16.35
2022-10-05T12:14:49.883Z,16.45
2022-10-05T12:18:00.996Z,16.62
2022-10-05T12:20:46.268Z,17.54
2022-10-05T12:23:25.883Z,18.22
2022-10-05T12:25:57.792Z,18.62
2022-10-05T12:28:33.091Z,18.00
2022-10-05T12:31:09.441Z,18.05
2022-10-05T12:33:44.878Z,17.91
2022-10-05T12:36:19.282Z,18.20
2022-10-05T12:39:21.148Z,18.04
2022-10-05T12:42:08.914Z,17.50
2022-10-05T12:44:54.196Z,17.36
2022-10-05T12:47:44.492Z,17.39
2022-10-05T12:50:37.245Z,17.43
2022-10-05T12:53:22.474Z,17.46
2022-10-05T12:55:53.229Z,17.40
2022-10-05T12:58:52.844Z,17.24
2022-10-05T13:01:22.056Z,17.14
2022-10-05T13:03:54.557Z,17.19
2022-10-05T13:06:43.751Z,17.39
2022-10-05T13:09:44.294Z,17.89
2022-10-05T13:12:26.557Z,19.29
2022-10-05T13:15:05.319Z,20.57
2022-10-05T13:17:42.862Z,20.20
2022-10-05T13:20:29.517Z,20.03
2022-10-05T13:23:19.783Z,18.66
2022-10-05T13:26:14.284Z,18.15
2022-10-05T13:29:29.122Z,17.88
2022-10-05T13:32:04.410Z,18.18
2022-10-05T13:34:43.260Z,17.80
2022-10-05T13:37:22.639Z,17.69
2022-10-05T13:39:58.510Z,17.43
2022-10-05T13:42:33.910Z,17.16
2022-10-05T13:45:11.778Z,17.04
2022-10-05T13:48:16.539Z,17.01
2022-10-05T13:50:50.310Z,17.18
2022-10-05T13:53:37.885Z,17.24
2022-10-05T13:56:44.937Z,17.65
2022-10-05T13:59:33.369Z,17.25
2022-10-05T14:02:09.283Z,17.18
2022-10-05T14:04:50.707Z,17.07
2022-10-05T14:07:30.714Z,17.24
2022-10-05T14:09:57.869Z,17.24
2022-10-05T14:12:27.113Z,17.38
2022-10-05T14:14:58.181Z,17.46
2022-10-05T14:17:33.570Z,17.36
2022-10-05T14:20:02.848Z,17.35
2022-10-05T14:22:29.509Z,17.44
2022-10-05T14:25:02.841Z,17.43
2022-10-05T14:27:34.647Z,17.23
2022-10-05T14:30:10.106Z,17.15
2022-10-05T14:32:50.461Z,17.14
2022-10-05T14:35:22.103Z,17.32
2022-10-05T14:37:56.040Z,17.63
2022-10-05T14:40:34.162Z,17.38
2022-10-05T14:43:16.187Z,17.38
2022-10-05T14:45:57.594Z,17.38
2022-10-05T14:48:29.046Z,17.27
2022-10-05T14:50:59.335Z,17.12
2022-10-05T14:53:37.977Z,17.02
2022-10-05T14:56:39.190Z,16.90
2022-10-05T14:59:23.188Z,16.86
2022-10-05T15:02:28.527Z,16.78
2022-10-05T15:05:01.914Z,16.67
2022-10-05T15:07:36.116Z,16.64
2022-10-05T15:10:44.502Z,16.59
2022-10-05T15:13:20.422Z,16.52
2022-10-05T15:16:05.843Z,16.53
2022-10-05T15:18:51.249Z,16.52
2022-10-05T15:21:23.873Z,16.53
2022-10-05T15:23:57.343Z,16.47
2022-10-05T15:26:50.459Z,16.45
2022-10-05T15:29:49.816Z,16.45
2022-10-05T15:32:34.379Z,16.46
2022-10-05T15:35:21.446Z,16.49
2022-10-05T15:37:56.429Z,16.47
2022-10-05T15:40:34.600Z,16.44
2022-10-05T15:43:10.164Z,16.38
2022-10-05T15:45:42.721Z,16.35
2022-10-05T15:48:22.350Z,16.36
2022-10-05T15:51:07.069Z,16.31
2022-10-05T15:54:15.577Z,16.30
2022-10-05T15:56:49.981Z,16.35
2022-10-05T15:59:34.058Z,16.37
2022-10-05T16:02:07.207Z,16.38
2022-10-05T16:04:47.774Z,16.34
2022-10-05T16:07:46.640Z,16.33
2022-10-05T16:10:17.350Z,16.35
2022-10-05T16:12:55.691Z,16.40
2022-10-05T16:15:48.520Z,16.40
2022-10-05T16:19:01.045Z,16.40
2022-10-05T16:21:44.077Z,16.39
2022-10-05T16:24:16.559Z,16.41
2022-10-05T16:26:59.973Z,16.37
2022-10-05T16:29:46.744Z,16.35
2022-10-05T16:32:21.234Z,16.37
2022-10-05T16:35:16.991Z,16.42
2022-10-05T16:37:58.874Z,16.40
2022-10-05T16:40:37.666Z,16.42
2022-10-05T16:43:25.674Z,16.42
2022-10-05T16:46:13.796Z,16.36
2022-10-05T16:48:54.350Z,16.38
2022-10-05T16:51:52.443Z,16.38
2022-10-05T16:54:24.142Z,16.38
2022-10-05T16:57:18.481Z,16.40
2022-10-05T17:00:14.905Z,16.40
2022-10-05T17:03:11.159Z,16.42
2022-10-05T17:06:06.989Z,16.44
2022-10-05T17:08:47.246Z,16.44
2022-10-05T17:11:26.648Z,16.44
2022-10-05T17:14:16.019Z,16.44
2022-10-05T17:17:01.102Z,16.46
2022-10-05T17:19:38.618Z,16.47
2022-10-05T17:22:12.241Z,16.45
2022-10-05T17:24:57.350Z,16.47
2022-10-05T17:27:51.048Z,16.46
2022-10-05T17:30:39.063Z,16.44
2022-10-05T17:33:21.126Z,16.43
2022-10-05T17:35:58.169Z,16.44
2022-10-05T17:38:30.760Z,16.45
2022-10-05T17:41:00.149Z,16.47
2022-10-05T17:43:28.515Z,16.45
2022-10-05T17:46:03.867Z,16.27
2022-10-05T17:48:48.382Z,16.04
2022-10-05T17:51:53.545Z,15.74
2022-10-05T17:54:49.328Z,15.40
2022-10-05T17:57:25.430Z,15.03
2022-10-05T17:59:57.717Z,14.11
2022-10-05T18:02:36.813Z,13.67
2022-10-05T18:05:04.438Z,13.48
2022-10-05T18:07:32.164Z,13.30
2022-10-05T18:10:24.454Z,13.21
2022-10-05T18:13:33.507Z,13.17
2022-10-05T18:16:00.157Z,13.10
2022-10-05T18:18:57.266Z,13.14
2022-10-05T18:21:32.644Z,13.09
2022-10-05T18:23:58.993Z,13.08
2022-10-05T18:26:41.591Z,13.08
2022-10-05T18:29:49.555Z,13.07
2022-10-05T18:32:46.821Z,13.09
2022-10-05T18:35:19.962Z,13.09
2022-10-05T18:38:09.451Z,13.11
2022-10-05T18:40:54.789Z,13.07
2022-10-05T18:43:42.503Z,13.04
2022-10-05T18:46:27.331Z,13.06
2022-10-05T18:49:12.492Z,13.07
2022-10-05T18:52:03.772Z,13.08
2022-10-05T18:54:54.092Z,13.04
2022-10-05T18:57:37.252Z,13.06
2022-10-05T19:00:18.655Z,13.05
2022-10-05T19:03:05.933Z,13.07
2022-10-05T19:05:48.351Z,13.11
2022-10-05T19:08:32.832Z,13.16
2022-10-05T19:11:11.803Z,13.14
2022-10-05T19:14:07.263Z,13.02
2022-10-05T19:16:52.715Z,12.95
2022-10-05T19:19:30.908Z,12.86
2022-10-05T19:22:25.082Z,12.78
2022-10-05T19:25:17.352Z,12.78
2022-10-05T19:28:23.494Z,12.76
2022-10-05T19:31:11.308Z,12.76
2022-10-05T19:33:46.149Z,12.69
2022-10-05T19:36:36.989Z,12.67
2022-10-05T19:39:12.277Z,12.63
2022-10-05T19:42:04.252Z,12.72
2022-10-05T19:44:50.324Z,12.67
2022-10-05T19:47:28.992Z,12.65
2022-10-05T19:49:55.295Z,12.63
2022-10-05T19:52:36.548Z,12.59
2022-10-05T19:55:12.794Z,12.61
2022-10-05T19:57:51.557Z,12.59
2022-10-05T20:00:35.489Z,12.62
2022-10-05T20:03:26.451Z,12.65
2022-10-05T20:05:54.836Z,12.62
2022-10-05T20:08:26.709Z,12.75
2022-10-05T20:11:06.229Z,12.72
2022-10-05T20:13:35.445Z,12.61
2022-10-05T20:16:36.320Z,12.71
2022-10-05T20:19:43.268Z,12.84
2022-10-05T20:22:33.766Z,12.68
2022-10-05T20:25:25.367Z,12.69
2022-10-05T20:27:55.524Z,12.65
2022-10-05T20:30:31.377Z,12.66
2022-10-05T20:33:06.798Z,12.79
2022-10-05T20:35:33.153Z,12.75
2022-10-05T20:37:59.925Z,12.79
2022-10-05T20:40:28.898Z,12.67
2022-10-05T20:42:56.565Z,12.77
2022-10-05T20:45:23.087Z,12.71
2022-10-05T20:47:50.631Z,12.71
2022-10-05T20:50:17.344Z,12.87
2022-10-05T20:52:43.701Z,12.78
2022-10-05T20:55:11.839Z,12.78
2022-10-05T20:57:41.791Z,12.79
2022-10-05T21:00:11.036Z,12.75
2022-10-05T21:02:38.522Z,12.94
2022-10-05T21:05:05.888Z,13.02
2022-10-05T21:07:34.156Z,13.03
2022-10-05T21:10:01.199Z,13.04
2022-10-05T21:12:27.588Z,13.00
2022-10-05T21:14:54.037Z,13.02
2022-10-05T21:17:20.387Z,13.07
2022-10-05T21:19:47.395Z,13.11
2022-10-05T21:22:13.862Z,13.17
2022-10-05T21:24:40.993Z,13.19
2022-10-05T21:27:08.025Z,13.24
2022-10-05T21:29:35.690Z,13.17
2022-10-05T21:32:02.580Z,13.27
2022-10-05T21:34:30.227Z,13.37
2022-10-05T21:36:56.627Z,13.30
2022-10-05T21:39:23.577Z,13.22
2022-10-05T21:41:50.013Z,13.27
2022-10-05T21:44:16.591Z,13.42
2022-10-05T21:46:43.077Z,13.37
2022-10-05T21:49:09.801Z,13.41
2022-10-05T21:51:37.087Z,13.44
2022-10-05T21:54:11.650Z,13.37
2022-10-05T21:56:44.038Z,13.29
2022-10-05T21:59:14.202Z,13.29
2022-10-05T22:01:40.756Z,13.21
2022-10-05T22:04:07.432Z,13.15
2022-10-05T22:06:35.154Z,13.16
2022-10-05T22:09:02.372Z,13.27
2022-10-05T22:11:29.058Z,13.28
2022-10-05T22:14:02.041Z,13.16
2022-10-05T22:16:31.703Z,13.22
2022-10-05T22:18:58.726Z,13.28
2022-10-05T22:21:25.188Z,13.31
2022-10-05T22:23:51.608Z,13.22
2022-10-05T22:26:21.187Z,13.20
2022-10-05T22:28:48.467Z,12.93
2022-10-05T22:31:15.765Z,12.88
2022-10-05T22:33:42.602Z,12.95
2022-10-05T22:36:09.673Z,13.00
2022-10-05T22:38:36.329Z,12.94
2022-10-05T22:41:02.802Z,12.96
2022-10-05T22:43:29.233Z,13.02
2022-10-05T22:45:56.234Z,13.01
2022-10-05T22:48:23.109Z,13.00
2022-10-05T22:50:49.600Z,12.89
2022-10-05T22:53:16.094Z,12.80
2022-10-05T22:55:42.514Z,12.79
2022-10-05T22:58:08.906Z,12.82
2022-10-05T23:00:57.135Z,12.85
2022-10-05T23:03:21.702Z,12.80
2022-10-05T23:05:48.210Z,12.77
2022-10-05T23:08:15.992Z,12.70
2022-10-05T23:10:42.508Z,12.74
2022-10-05T23:13:08.873Z,12.63
2022-10-05T23:15:35.780Z,12.70
2022-10-05T23:18:02.162Z,12.73
2022-10-05T23:20:28.606Z,12.75
2022-10-05T23:22:54.954Z,12.69
2022-10-05T23:25:22.199Z,12.67
2022-10-05T23:27:48.683Z,12.65
2022-10-05T23:30:15.196Z,12.60
2022-10-05T23:32:44.090Z,12.62
2022-10-05T23:35:12.622Z,12.70
2022-10-05T23:37:43.455Z,12.76
2022-10-05T23:40:12.711Z,12.77
2022-10-05T23:42:40.596Z,12.67
2022-10-05T23:45:11.556Z,12.69
2022-10-05T23:47:39.673Z,12.64
2022-10-05T23:50:07.780Z,12.56
2022-10-05T23:52:35.079Z,12.54
2022-10-05T23:55:03.049Z,12.54
2022-10-05T23:57:29.423Z,12.47
2022-10-05T23:59:56.327Z,12.43
